createdAt,value
2018-04-22T00:00:07.720Z,70.80
2018-04-22T00:02:36.019Z,70.79
2018-04-22T00:05:06.056Z,71.29
2018-04-22T00:07:34.338Z,71.54
2018-04-22T00:10:09.679Z,71.71
2018-04-22T00:12:37.962Z,71.49
2018-04-22T00:15:06.258Z,71.35
2018-04-22T00:17:34.538Z,71.38
2018-04-22T00:20:07.576Z,71.57
2018-04-22T00:22:35.839Z,71.58
2018-04-22T00:25:06.022Z,71.95
2018-04-22T00:27:34.300Z,71.80
2018-04-22T00:30:06.373Z,71.90
2018-04-22T00:32:34.681Z,71.98
2018-04-22T00:35:06.163Z,72.25
2018-04-22T00:37:34.475Z,71.90
2018-04-22T00:40:09.495Z,72.67
2018-04-22T00:42:37.806Z,73.25
2018-04-22T00:45:06.302Z,73.98
2018-04-22T00:47:34.603Z,73.90
2018-04-22T00:50:06.082Z,74.34
2018-04-22T00:52:34.385Z,74.28
2018-04-22T00:55:05.859Z,73.76
2018-04-22T00:57:34.426Z,73.40
2018-04-22T01:00:10.347Z,72.86
2018-04-22T01:02:38.660Z,73.82
2018-04-22T01:05:07.166Z,74.26
2018-04-22T01:07:35.471Z,73.99
2018-04-22T01:10:06.044Z,74.46
2018-04-22T01:12:34.338Z,74.61
2018-04-22T01:15:08.343Z,74.27
2018-04-22T01:17:36.647Z,74.59
2018-04-22T01:20:06.374Z,75.00
2018-04-22T01:22:34.663Z,75.00
2018-04-22T01:25:06.600Z,75.36
2018-04-22T01:27:34.911Z,75.34
2018-04-22T01:30:07.147Z,75.62
2018-04-22T01:32:35.411Z,75.90
2018-04-22T01:35:07.463Z,76.06
2018-04-22T01:37:35.779Z,76.14
2018-04-22T01:40:07.028Z,76.11
2018-04-22T01:42:35.311Z,75.80
2018-04-22T01:45:07.248Z,75.57
2018-04-22T01:47:35.534Z,76.04
2018-04-22T01:50:07.675Z,76.04
2018-04-22T01:52:36.254Z,76.58
2018-04-22T01:55:08.005Z,76.51
2018-04-22T01:57:36.491Z,76.59
2018-04-22T02:00:07.579Z,77.36
2018-04-22T02:02:35.879Z,76.94
2018-04-22T02:05:06.149Z,77.45
2018-04-22T02:07:34.437Z,77.42
2018-04-22T02:10:07.671Z,76.99
2018-04-22T02:12:36.094Z,76.71
2018-04-22T02:15:08.162Z,76.39
2018-04-22T02:17:36.446Z,76.48
2018-04-22T02:20:06.480Z,76.58
2018-04-22T02:22:34.765Z,76.70
2018-04-22T02:25:06.224Z,76.64
2018-04-22T02:27:34.514Z,76.64
2018-04-22T02:30:09.412Z,76.69
2018-04-22T02:32:37.812Z,76.77
2018-04-22T02:35:06.437Z,76.45
2018-04-22T02:37:34.722Z,76.64
2018-04-22T02:40:06.431Z,76.56
2018-04-22T02:42:35.002Z,76.95
2018-04-22T02:45:06.476Z,77.29
2018-04-22T02:47:34.755Z,77.50
2018-04-22T02:50:08.954Z,77.57
2018-04-22T02:52:37.229Z,77.62
2018-04-22T02:55:06.451Z,77.55
2018-04-22T02:57:34.744Z,77.68
2018-04-22T03:00:06.868Z,77.12
2018-04-22T03:02:35.324Z,77.50
2018-04-22T03:05:07.247Z,77.73
2018-04-22T03:07:35.560Z,77.87
2018-04-22T03:10:07.690Z,77.81
2018-04-22T03:12:36.018Z,77.79
2018-04-22T03:15:08.047Z,78.35
2018-04-22T03:17:36.937Z,78.22
2018-04-22T03:20:06.813Z,78.38
2018-04-22T03:22:35.189Z,78.46
2018-04-22T03:25:07.118Z,78.23
2018-04-22T03:27:35.486Z,78.70
2018-04-22T03:30:07.429Z,79.44
2018-04-22T03:32:35.743Z,79.25
2018-04-22T03:35:07.767Z,79.42
2018-04-22T03:37:36.065Z,79.87
2018-04-22T03:40:07.853Z,79.81
2018-04-22T03:42:36.196Z,79.87
2018-04-22T03:45:08.196Z,80.14
2018-04-22T03:47:36.504Z,80.95
2018-04-22T03:50:07.716Z,80.47
2018-04-22T03:52:36.023Z,80.69
2018-04-22T03:55:07.953Z,80.53
2018-04-22T03:57:36.322Z,80.52
2018-04-22T04:00:06.257Z,80.22
2018-04-22T04:02:34.555Z,79.83
2018-04-22T04:05:07.810Z,80.19
2018-04-22T04:07:36.085Z,80.01
2018-04-22T04:10:07.349Z,80.50
2018-04-22T04:12:35.639Z,80.36
2018-04-22T04:15:07.712Z,80.44
2018-04-22T04:17:36.019Z,80.85
2018-04-22T04:20:19.674Z,81.24
2018-04-22T04:22:48.489Z,81.08
2018-04-22T04:28:17.174Z,81.29
2018-04-22T04:30:45.925Z,80.79
2018-04-22T04:33:14.503Z,81.17
2018-04-22T04:35:43.023Z,82.21
2018-04-22T04:38:11.404Z,82.95
2018-04-22T04:40:39.724Z,82.56
2018-04-22T04:43:08.005Z,81.87
2018-04-22T04:45:36.310Z,81.33
2018-04-22T04:48:04.598Z,81.69
2018-04-22T04:50:33.312Z,80.95
2018-04-22T04:53:01.615Z,80.65
2018-04-22T04:55:30.187Z,80.56
2018-04-22T04:57:58.726Z,80.97
2018-04-22T05:00:27.219Z,80.89
2018-04-22T05:02:55.633Z,80.35
2018-04-22T05:05:24.490Z,80.48
2018-04-22T05:07:52.747Z,80.46
2018-04-22T05:10:21.053Z,79.73
2018-04-22T05:12:49.424Z,79.51
2018-04-22T05:15:17.819Z,79.55
2018-04-22T05:17:46.131Z,79.13
2018-04-22T05:20:14.430Z,79.77
2018-04-22T05:22:42.743Z,79.44
2018-04-22T05:25:11.878Z,79.74
2018-04-22T05:27:40.290Z,79.19
2018-04-22T05:30:09.052Z,78.69
2018-04-22T05:32:37.350Z,77.49
2018-04-22T05:35:07.330Z,77.21
2018-04-22T05:37:35.650Z,76.01
2018-04-22T05:40:08.048Z,74.57
2018-04-22T05:42:36.389Z,73.54
2018-04-22T05:45:07.869Z,73.27
2018-04-22T05:47:36.618Z,73.36
2018-04-22T05:50:10.791Z,73.51
2018-04-22T05:52:39.095Z,73.80
2018-04-22T05:55:07.447Z,73.37
2018-04-22T05:57:35.735Z,73.34
2018-04-22T06:00:06.542Z,72.56
2018-04-22T06:02:34.879Z,71.69
2018-04-22T06:05:10.023Z,72.13
2018-04-22T06:07:38.654Z,71.44
2018-04-22T06:10:07.139Z,71.53
2018-04-22T06:12:35.431Z,71.97
2018-04-22T06:15:07.378Z,71.04
2018-04-22T06:17:35.839Z,71.79
2018-04-22T06:20:06.665Z,71.05
2018-04-22T06:22:34.934Z,72.25
2018-04-22T06:25:07.103Z,71.20
2018-04-22T06:27:35.392Z,72.11
2018-04-22T06:30:07.056Z,70.32
2018-04-22T06:32:35.376Z,69.20
2018-04-22T06:35:06.709Z,69.98
2018-04-22T06:37:35.036Z,69.62
2018-04-22T06:40:07.051Z,69.40
2018-04-22T06:42:35.355Z,68.68
2018-04-22T06:45:08.610Z,66.89
2018-04-22T06:47:36.886Z,66.61
2018-04-22T06:50:06.703Z,66.34
2018-04-22T06:52:34.967Z,66.05
2018-04-22T06:55:06.811Z,66.58
2018-04-22T06:57:35.102Z,65.39
2018-04-22T07:00:06.344Z,63.65
2018-04-22T07:02:35.220Z,64.56
2018-04-22T07:05:07.254Z,63.75
2018-04-22T07:07:35.883Z,60.78
2018-04-22T07:10:07.428Z,61.12
2018-04-22T07:12:35.726Z,61.91
2018-04-22T07:15:05.543Z,63.33
2018-04-22T07:17:33.853Z,62.58
2018-04-22T07:20:07.495Z,61.69
2018-04-22T07:22:35.830Z,59.00
2018-04-22T07:25:05.735Z,58.54
2018-04-22T07:27:34.059Z,58.82
2018-04-22T07:30:05.359Z,58.71
2018-04-22T07:32:33.678Z,57.41
2018-04-22T07:35:04.958Z,58.76
2018-04-22T07:37:33.234Z,59.17
2018-04-22T07:40:08.331Z,59.52
2018-04-22T07:42:36.690Z,62.55
2018-04-22T07:45:06.290Z,64.10
2018-04-22T07:47:34.783Z,63.71
2018-04-22T07:50:06.790Z,64.06
2018-04-22T07:52:35.140Z,65.29
2018-04-22T07:55:05.620Z,64.47
2018-04-22T07:57:33.931Z,64.16
2018-04-22T08:00:05.403Z,64.22
2018-04-22T08:02:33.933Z,64.01
2018-04-22T08:05:07.259Z,61.41
2018-04-22T08:07:35.913Z,62.98
2018-04-22T08:10:07.816Z,61.18
2018-04-22T08:12:36.120Z,61.91
2018-04-22T08:15:05.717Z,61.55
2018-04-22T08:17:34.015Z,62.91
2018-04-22T08:20:09.044Z,61.42
2018-04-22T08:22:37.339Z,59.56
2018-04-22T08:25:05.663Z,54.73
2018-04-22T08:27:33.960Z,53.87
2018-04-22T08:30:06.063Z,52.84
2018-04-22T08:32:34.376Z,55.16
2018-04-22T08:35:05.910Z,54.37
2018-04-22T08:37:34.207Z,51.41
2018-04-22T08:40:06.357Z,50.90
2018-04-22T08:42:34.650Z,52.08
2018-04-22T08:45:05.906Z,51.67
2018-04-22T08:47:34.328Z,47.76
2018-04-22T08:50:06.380Z,45.81
2018-04-22T08:52:35.211Z,48.94
2018-04-22T08:55:06.999Z,47.70
2018-04-22T08:57:35.794Z,46.77
2018-04-22T09:00:07.106Z,46.79
2018-04-22T09:02:35.383Z,44.85
2018-04-22T09:05:07.403Z,46.39
2018-04-22T09:07:35.714Z,49.80
2018-04-22T09:10:05.767Z,49.24
2018-04-22T09:12:34.052Z,50.20
2018-04-22T09:15:06.085Z,49.14
2018-04-22T09:17:34.362Z,49.39
2018-04-22T09:20:08.486Z,48.63
2018-04-22T09:22:36.790Z,48.39
2018-04-22T09:25:06.001Z,49.13
2018-04-22T09:27:34.323Z,49.34
2018-04-22T09:30:05.735Z,48.64
2018-04-22T09:32:34.041Z,48.33
2018-04-22T09:35:05.979Z,47.02
2018-04-22T09:37:34.292Z,47.63
2018-04-22T09:40:06.076Z,47.46
2018-04-22T09:42:34.368Z,46.84
2018-04-22T09:45:05.739Z,46.39
2018-04-22T09:47:34.531Z,47.27
2018-04-22T09:50:06.695Z,47.14
2018-04-22T09:52:34.984Z,47.54
2018-04-22T09:55:07.390Z,46.60
2018-04-22T09:57:35.694Z,46.08
2018-04-22T10:00:05.933Z,43.67
2018-04-22T10:02:34.241Z,43.76
2018-04-22T10:05:09.216Z,45.03
2018-04-22T10:07:37.534Z,45.21
2018-04-22T10:10:05.994Z,43.90
2018-04-22T10:12:34.274Z,42.38
2018-04-22T10:15:10.232Z,40.79
2018-04-22T10:17:38.528Z,41.85
2018-04-22T10:20:06.830Z,40.58
2018-04-22T10:22:35.281Z,38.51
2018-04-22T10:25:07.010Z,40.08
2018-04-22T10:27:36.406Z,40.49
2018-04-22T10:30:06.352Z,39.75
2018-04-22T10:32:35.147Z,39.12
2018-04-22T10:35:07.040Z,40.24
2018-04-22T10:37:35.368Z,39.11
2018-04-22T10:40:07.627Z,40.59
2018-04-22T10:42:36.120Z,40.69
2018-04-22T10:45:07.868Z,41.94
2018-04-22T10:47:36.232Z,41.26
2018-04-22T10:50:06.355Z,41.40
2018-04-22T10:52:34.614Z,41.41
2018-04-22T10:55:06.079Z,39.64
2018-04-22T10:57:34.343Z,39.25
2018-04-22T11:00:08.495Z,39.81
2018-04-22T11:02:36.933Z,39.26
2018-04-22T11:05:06.086Z,39.54
2018-04-22T11:07:34.312Z,39.49
2018-04-22T11:10:05.635Z,38.93
2018-04-22T11:12:34.264Z,38.76
2018-04-22T11:15:09.487Z,38.37
2018-04-22T11:17:37.764Z,39.56
2018-04-22T11:20:06.053Z,38.31
2018-04-22T11:22:34.323Z,38.28
2018-04-22T11:25:05.709Z,37.91
2018-04-22T11:27:34.251Z,36.51
2018-04-22T11:30:09.453Z,37.21
2018-04-22T11:32:37.892Z,36.43
2018-04-22T11:35:06.167Z,36.94
2018-04-22T11:37:34.505Z,36.33
2018-04-22T11:40:05.955Z,36.51
2018-04-22T11:42:34.239Z,34.81
2018-04-22T11:45:05.652Z,34.36
2018-04-22T11:47:33.942Z,34.72
2018-04-22T11:50:05.384Z,35.55
2018-04-22T11:52:33.693Z,34.53
2018-04-22T11:55:05.652Z,34.55
2018-04-22T11:57:33.948Z,34.89
2018-04-22T12:00:05.299Z,35.38
2018-04-22T12:02:33.697Z,36.65
2018-04-22T12:05:06.829Z,36.19
2018-04-22T12:07:35.119Z,36.72
2018-04-22T12:10:07.139Z,35.28
2018-04-22T12:12:35.447Z,34.24
2018-04-22T12:15:03.737Z,33.64
2018-04-22T12:17:32.033Z,33.24
2018-04-22T12:20:00.330Z,33.30
2018-04-22T12:22:31.424Z,32.58
2018-04-22T12:25:00.046Z,31.92
2018-04-22T12:27:33.506Z,32.76
2018-04-22T12:30:08.314Z,33.59
2018-04-22T12:32:36.600Z,34.56
2018-04-22T12:35:07.378Z,36.61
2018-04-22T12:37:35.786Z,35.97
2018-04-22T12:40:07.294Z,37.36
2018-04-22T12:42:35.582Z,36.86
2018-04-22T12:45:07.727Z,36.69
2018-04-22T12:47:36.112Z,35.75
2018-04-22T12:50:06.063Z,36.35
2018-04-22T12:52:34.526Z,37.62
2018-04-22T12:55:07.334Z,36.99
2018-04-22T12:57:35.646Z,38.12
2018-04-22T13:00:06.900Z,38.04
2018-04-22T13:02:35.189Z,37.40
2018-04-22T13:05:07.361Z,36.81
2018-04-22T13:07:35.654Z,36.45
2018-04-22T13:10:07.751Z,36.07
2018-04-22T13:12:36.259Z,36.58
2018-04-22T13:15:06.631Z,37.33
2018-04-22T13:17:34.954Z,36.41
2018-04-22T13:20:07.093Z,34.26
2018-04-22T13:22:35.547Z,33.02
2018-04-22T13:25:07.502Z,32.64
2018-04-22T13:27:35.796Z,31.35
2018-04-22T13:30:07.631Z,30.78
2018-04-22T13:32:35.952Z,32.11
2018-04-22T13:35:07.844Z,31.95
2018-04-22T13:37:36.705Z,32.58
2018-04-22T13:40:06.328Z,32.10
2018-04-22T13:42:34.827Z,32.65
2018-04-22T13:45:06.253Z,33.23
2018-04-22T13:47:34.575Z,31.83
2018-04-22T13:50:09.740Z,31.98
2018-04-22T13:52:38.278Z,35.11
2018-04-22T13:55:06.619Z,37.24
2018-04-22T13:57:34.924Z,38.52
2018-04-22T14:00:06.603Z,38.08
2018-04-22T14:02:34.939Z,37.39
2018-04-22T14:05:06.565Z,36.09
2018-04-22T14:07:34.850Z,36.97
2018-04-22T14:10:06.893Z,36.28
2018-04-22T14:12:35.206Z,36.12
2018-04-22T14:15:06.495Z,37.42
2018-04-22T14:17:34.851Z,37.43
2018-04-22T14:20:09.184Z,38.39
2018-04-22T14:22:37.721Z,36.70
2018-04-22T14:25:06.521Z,37.74
2018-04-22T14:27:35.467Z,36.01
2018-04-22T14:30:07.793Z,37.36
2018-04-22T14:32:36.065Z,35.44
2018-04-22T14:35:07.278Z,38.40
2018-04-22T14:37:35.603Z,40.13
2018-04-22T14:40:07.780Z,41.25
2018-04-22T14:42:36.068Z,41.54
2018-04-22T14:45:19.898Z,40.87
2018-04-22T14:47:48.194Z,42.32
2018-04-22T14:50:16.503Z,42.51
2018-04-22T14:52:44.818Z,42.37
2018-04-22T14:55:13.101Z,44.34
2018-04-22T14:57:41.385Z,45.56
2018-04-22T15:00:09.680Z,46.08
2018-04-22T15:02:37.979Z,46.49
2018-04-22T15:05:06.284Z,45.01
2018-04-22T15:07:34.810Z,44.43
2018-04-22T15:10:06.161Z,44.13
2018-04-22T15:12:34.439Z,44.00
2018-04-22T15:15:05.727Z,41.67
2018-04-22T15:17:34.036Z,41.08
2018-04-22T15:20:08.664Z,41.06
2018-04-22T15:22:36.970Z,41.78
2018-04-22T15:25:06.516Z,41.44
2018-04-22T15:27:35.211Z,41.77
2018-04-22T15:30:06.386Z,42.58
2018-04-22T15:32:34.705Z,42.49
2018-04-22T15:35:06.219Z,41.57
2018-04-22T15:37:34.531Z,42.52
2018-04-22T15:40:06.345Z,41.70
2018-04-22T15:42:34.656Z,42.27
2018-04-22T15:45:06.523Z,41.99
2018-04-22T15:47:34.827Z,42.19
2018-04-22T15:50:06.718Z,43.05
2018-04-22T15:52:35.626Z,42.31
2018-04-22T15:55:07.423Z,42.20
2018-04-22T15:57:35.744Z,41.98
2018-04-22T16:00:07.126Z,42.50
2018-04-22T16:02:35.397Z,41.91
2018-04-22T16:05:06.889Z,41.94
2018-04-22T16:07:35.165Z,42.86
2018-04-22T16:10:07.031Z,44.09
2018-04-22T16:12:35.515Z,44.08
2018-04-22T16:15:07.212Z,43.44
2018-04-22T16:17:35.527Z,42.86
2018-04-22T16:20:07.815Z,43.16
2018-04-22T16:22:36.102Z,43.21
2018-04-22T16:25:08.122Z,44.05
2018-04-22T16:27:36.408Z,43.94
2018-04-22T16:30:07.902Z,43.86
2018-04-22T16:32:41.103Z,43.89
2018-04-22T16:35:09.399Z,43.70
2018-04-22T16:37:37.680Z,43.51
2018-04-22T16:40:06.021Z,43.80
2018-04-22T16:42:34.342Z,43.57
2018-04-22T16:45:06.355Z,43.35
2018-04-22T16:47:34.657Z,44.28
2018-04-22T16:50:06.460Z,45.29
2018-04-22T16:52:35.015Z,47.30
2018-04-22T16:55:05.555Z,49.07
2018-04-22T16:57:33.848Z,50.86
2018-04-22T17:00:05.379Z,51.40
2018-04-22T17:02:33.784Z,51.54
2018-04-22T17:05:05.994Z,51.46
2018-04-22T17:07:34.306Z,51.99
2018-04-22T17:10:06.141Z,51.91
2018-04-22T17:12:34.440Z,52.26
2018-04-22T17:15:06.369Z,53.20
2018-04-22T17:17:34.745Z,53.23
2018-04-22T17:20:06.747Z,54.67
2018-04-22T17:22:35.972Z,53.88
2018-04-22T17:25:07.439Z,51.58
2018-04-22T17:27:36.458Z,50.73
2018-04-22T17:30:05.963Z,50.57
2018-04-22T17:32:34.353Z,49.72
2018-04-22T17:35:06.528Z,50.44
2018-04-22T17:37:34.799Z,46.70
2018-04-22T17:40:06.736Z,41.40
2018-04-22T17:42:35.044Z,38.34
2018-04-22T17:45:07.185Z,36.49
2018-04-22T17:47:35.465Z,36.21
2018-04-22T17:50:06.715Z,36.13
2018-04-22T17:52:34.995Z,36.12
2018-04-22T17:55:05.754Z,36.48
2018-04-22T17:57:34.069Z,36.49
2018-04-22T18:00:05.999Z,37.49
2018-04-22T18:02:34.286Z,37.11
2018-04-22T18:05:06.426Z,37.33
2018-04-22T18:07:34.708Z,37.66
2018-04-22T18:10:06.862Z,38.02
2018-04-22T18:12:35.155Z,38.32
2018-04-22T18:15:07.166Z,38.26
2018-04-22T18:17:35.691Z,38.41
2018-04-22T18:20:07.602Z,38.98
2018-04-22T18:22:35.915Z,39.18
2018-04-22T18:25:05.878Z,39.11
2018-04-22T18:27:34.134Z,39.20
2018-04-22T18:30:05.732Z,39.11
2018-04-22T18:32:34.016Z,39.42
2018-04-22T18:35:05.445Z,39.75
2018-04-22T18:37:33.828Z,39.79
2018-04-22T18:40:05.620Z,40.29
2018-04-22T18:42:33.918Z,40.50
2018-04-22T18:45:05.208Z,40.75
2018-04-22T18:47:33.531Z,40.67
2018-04-22T18:50:08.329Z,41.07
2018-04-22T18:52:36.623Z,41.55
2018-04-22T18:55:06.124Z,41.64
2018-04-22T18:57:34.436Z,41.92
2018-04-22T19:00:06.027Z,42.07
2018-04-22T19:02:34.386Z,42.06
2018-04-22T19:05:05.919Z,42.65
2018-04-22T19:07:34.232Z,42.27
2018-04-22T19:10:05.666Z,42.76
2018-04-22T19:12:33.959Z,43.03
2018-04-22T19:15:05.291Z,43.43
2018-04-22T19:17:33.565Z,43.73
2018-04-22T19:20:06.022Z,43.88
2018-04-22T19:22:34.306Z,44.28
2018-04-22T19:25:06.156Z,44.47
2018-04-22T19:27:34.435Z,44.74
2018-04-22T19:30:05.829Z,45.38
2018-04-22T19:32:34.094Z,45.44
2018-04-22T19:35:05.445Z,45.71
2018-04-22T19:37:33.723Z,45.94
2018-04-22T19:40:08.578Z,45.99
2018-04-22T19:42:36.947Z,46.35
2018-04-22T19:45:06.394Z,46.42
2018-04-22T19:47:35.314Z,46.60
2018-04-22T19:50:07.183Z,47.05
2018-04-22T19:52:36.454Z,47.10
2018-04-22T19:55:06.431Z,47.20
2018-04-22T19:57:34.705Z,47.49
2018-04-22T20:00:06.051Z,47.56
2018-04-22T20:02:34.367Z,47.80
2018-04-22T20:05:06.300Z,48.35
2018-04-22T20:07:34.599Z,48.27
2018-04-22T20:10:06.884Z,48.28
2018-04-22T20:12:35.764Z,48.66
2018-04-22T20:15:07.103Z,48.73
2018-04-22T20:17:35.397Z,48.94
2018-04-22T20:20:07.452Z,49.19
2018-04-22T20:22:35.741Z,49.25
2018-04-22T20:25:07.156Z,49.22
2018-04-22T20:27:35.399Z,49.28
2018-04-22T20:30:07.514Z,49.52
2018-04-22T20:32:35.808Z,49.67
2018-04-22T20:35:07.742Z,50.08
2018-04-22T20:37:36.033Z,50.18
2018-04-22T20:40:08.032Z,50.49
2018-04-22T20:42:36.391Z,50.65
2018-04-22T20:45:06.402Z,50.78
2018-04-22T20:47:34.736Z,51.25
2018-04-22T20:50:06.774Z,51.52
2018-04-22T20:52:35.047Z,51.52
2018-04-22T20:55:07.227Z,51.86
2018-04-22T20:57:35.527Z,51.88
2018-04-22T21:00:06.290Z,51.96
2018-04-22T21:02:34.577Z,52.55
2018-04-22T21:05:05.976Z,52.47
2018-04-22T21:07:34.267Z,52.50
2018-04-22T21:10:06.414Z,52.71
2018-04-22T21:12:34.699Z,53.20
2018-04-22T21:15:07.250Z,53.38
2018-04-22T21:17:35.527Z,53.93
2018-04-22T21:20:06.375Z,53.66
2018-04-22T21:22:34.654Z,54.31
2018-04-22T21:25:06.560Z,54.29
2018-04-22T21:27:35.607Z,54.36
2018-04-22T21:30:07.675Z,54.69
2018-04-22T21:32:35.983Z,55.03
2018-04-22T21:35:08.562Z,55.02
2018-04-22T21:37:36.852Z,55.41
2018-04-22T21:40:08.760Z,55.65
2018-04-22T21:42:37.046Z,55.55
2018-04-22T21:45:06.549Z,55.99
2018-04-22T21:47:34.885Z,55.82
2018-04-22T21:50:08.834Z,55.55
2018-04-22T21:52:37.103Z,55.59
2018-04-22T21:55:06.648Z,55.61
2018-04-22T21:57:35.163Z,55.28
2018-04-22T22:00:07.006Z,55.11
2018-04-22T22:02:35.296Z,55.18
